Lexington, Indiana
Current Conditions -  °F | °C
As of 8:53 AM on Saturday 22 Nov 2014 (Local Time) from KLOU Reporting Station
Overcast Overcast  
Wind Chill:   Ceiling: 6000
Heat Index:   Visibility: 10mi
Dew Point:   Wind: 6mph
Humidity: 58%   Direction: 160°SSE
Pressure: 30.3"   Gusts: NA
Location:  38.65°N, 85.63°W
Report Text: KLOU 221353Z 16005KT 10SM OVC060 08/00 A3030 RMK AO2 RAB1256E36 SLP263 P0000 T00780000
Loading
Personal Weather Stations






























Interactive Weather Map New forecast layout! Learn more

10-Day Weather Forecast

Advertisements
Track Severe Weather on mobile